sensor_id;sensor_type;location;lat;lon;timestamp;P1;durP1;ratioP1;P2;durP2;ratioP2
37413;SDS011;23279;46.472;30.760;2022-12-16T00:01:09;0.00;;;0.00;;
37413;SDS011;23279;46.472;30.760;2022-12-16T00:03:45;0.00;;;0.00;;
37413;SDS011;23279;46.472;30.760;2022-12-16T00:06:12;0.00;;;0.00;;
37413;SDS011;23279;46.472;30.760;2022-12-16T00:08:38;0.00;;;0.00;;
37413;SDS011;23279;46.472;30.760;2022-12-16T00:11:04;0.00;;;0.00;;
37413;SDS011;23279;46.472;30.760;2022-12-16T00:13:33;0.00;;;0.00;;
37413;SDS011;23279;46.472;30.760;2022-12-16T00:16:06;0.00;;;0.00;;
37413;SDS011;23279;46.472;30.760;2022-12-16T00:18:37;0.10;;;0.10;;
37413;SDS011;23279;46.472;30.760;2022-12-16T00:21:03;0.10;;;0.10;;
37413;SDS011;23279;46.472;30.760;2022-12-16T00:23:29;0.20;;;0.20;;
37413;SDS011;23279;46.472;30.760;2022-12-16T00:25:55;0.10;;;0.10;;
37413;SDS011;23279;46.472;30.760;2022-12-16T00:28:21;0.20;;;0.20;;
37413;SDS011;23279;46.472;30.760;2022-12-16T00:30:47;0.25;;;0.20;;
37413;SDS011;23279;46.472;30.760;2022-12-16T00:33:14;0.10;;;0.10;;
37413;SDS011;23279;46.472;30.760;2022-12-16T00:35:39;0.50;;;0.20;;
37413;SDS011;23279;46.472;30.760;2022-12-16T00:38:04;0.25;;;0.20;;
37413;SDS011;23279;46.472;30.760;2022-12-16T00:40:30;0.35;;;0.20;;
37413;SDS011;23279;46.472;30.760;2022-12-16T00:42:55;0.32;;;0.25;;
37413;SDS011;23279;46.472;30.760;2022-12-16T00:45:21;0.15;;;0.15;;
37413;SDS011;23279;46.472;30.760;2022-12-16T00:47:47;0.32;;;0.22;;
37413;SDS011;23279;46.472;30.760;2022-12-16T00:50:13;0.20;;;0.20;;
37413;SDS011;23279;46.472;30.760;2022-12-16T00:52:39;0.20;;;0.20;;
37413;SDS011;23279;46.472;30.760;2022-12-16T00:55:05;0.10;;;0.10;;
37413;SDS011;23279;46.472;30.760;2022-12-16T00:57:32;0.75;;;0.40;;
37413;SDS011;23279;46.472;30.760;2022-12-16T00:59:57;0.28;;;0.17;;
37413;SDS011;23279;46.472;30.760;2022-12-16T01:02:23;0.10;;;0.10;;
37413;SDS011;23279;46.472;30.760;2022-12-16T01:04:48;0.68;;;0.30;;
37413;SDS011;23279;46.472;30.760;2022-12-16T01:07:13;0.40;;;0.30;;
37413;SDS011;23279;46.472;30.760;2022-12-16T01:09:39;0.28;;;0.20;;
37413;SDS011;23279;46.472;30.760;2022-12-16T01:12:04;0.40;;;0.38;;
37413;SDS011;23279;46.472;30.760;2022-12-16T01:14:30;0.25;;;0.20;;
37413;SDS011;23279;46.472;30.760;2022-12-16T01:16:56;0.20;;;0.20;;
37413;SDS011;23279;46.472;30.760;2022-12-16T01:19:21;0.20;;;0.20;;
37413;SDS011;23279;46.472;30.760;2022-12-16T01:21:47;0.05;;;0.05;;
37413;SDS011;23279;46.472;30.760;2022-12-16T01:24:12;0.28;;;0.20;;
37413;SDS011;23279;46.472;30.760;2022-12-16T01:26:37;0.63;;;0.32;;
37413;SDS011;23279;46.472;30.760;2022-12-16T01:29:03;0.10;;;0.10;;
37413;SDS011;23279;46.472;30.760;2022-12-16T01:31:29;0.45;;;0.40;;
37413;SDS011;23279;46.472;30.760;2022-12-16T01:33:55;0.00;;;0.00;;
37413;SDS011;23279;46.472;30.760;2022-12-16T01:36:20;0.00;;;0.00;;
37413;SDS011;23279;46.472;30.760;2022-12-16T01:38:47;0.00;;;0.00;;
37413;SDS011;23279;46.472;30.760;2022-12-16T01:41:13;0.10;;;0.10;;
37413;SDS011;23279;46.472;30.760;2022-12-16T01:43:40;0.10;;;0.10;;
37413;SDS011;23279;46.472;30.760;2022-12-16T01:46:28;0.10;;;0.10;;
37413;SDS011;23279;46.472;30.760;2022-12-16T01:49:00;0.25;;;0.20;;
37413;SDS011;23279;46.472;30.760;2022-12-16T01:51:34;0.10;;;0.10;;
37413;SDS011;23279;46.472;30.760;2022-12-16T01:54:03;0.00;;;0.00;;
37413;SDS011;23279;46.472;30.760;2022-12-16T01:56:36;0.00;;;0.00;;
37413;SDS011;23279;46.472;30.760;2022-12-16T01:59:05;0.00;;;0.00;;
37413;SDS011;23279;46.472;30.760;2022-12-16T02:01:32;0.00;;;0.00;;
37413;SDS011;23279;46.472;30.760;2022-12-16T02:03:58;0.13;;;0.13;;
37413;SDS011;23279;46.472;30.760;2022-12-16T02:06:27;0.10;;;0.10;;
37413;SDS011;23279;46.472;30.760;2022-12-16T02:08:54;0.00;;;0.00;;
37413;SDS011;23279;46.472;30.760;2022-12-16T02:22:13;0.00;;;0.00;;
37413;SDS011;23279;46.472;30.760;2022-12-16T02:25:13;0.00;;;0.00;;
37413;SDS011;23279;46.472;30.760;2022-12-16T02:38:58;0.00;;;0.00;;
37413;SDS011;23279;46.472;30.760;2022-12-16T02:44:12;0.00;;;0.00;;
37413;SDS011;23279;46.472;30.760;2022-12-16T02:46:40;0.00;;;0.00;;
37413;SDS011;23279;46.472;30.760;2022-12-16T02:49:08;0.20;;;0.10;;
37413;SDS011;23279;46.472;30.760;2022-12-16T02:51:52;0.00;;;0.00;;
37413;SDS011;23279;46.472;30.760;2022-12-16T02:54:19;0.35;;;0.17;;
37413;SDS011;23279;46.472;30.760;2022-12-16T02:59:25;0.00;;;0.00;;
37413;SDS011;23279;46.472;30.760;2022-12-16T03:02:41;0.10;;;0.10;;
37413;SDS011;23279;46.472;30.760;2022-12-16T03:07:45;0.10;;;0.10;;
37413;SDS011;23279;46.472;30.760;2022-12-16T03:10:14;0.10;;;0.10;;
37413;SDS011;23279;46.472;30.760;2022-12-16T03:12:42;0.00;;;0.00;;
37413;SDS011;23279;46.472;30.760;2022-12-16T03:15:10;0.00;;;0.00;;
37413;SDS011;23279;46.472;30.760;2022-12-16T03:17:39;0.00;;;0.00;;
37413;SDS011;23279;46.472;30.760;2022-12-16T03:20:14;0.00;;;0.00;;
37413;SDS011;23279;46.472;30.760;2022-12-16T03:22:43;0.00;;;0.00;;
37413;SDS011;23279;46.472;30.760;2022-12-16T03:25:12;0.00;;;0.00;;
37413;SDS011;23279;46.472;30.760;2022-12-16T03:30:25;0.20;;;0.20;;
37413;SDS011;23279;46.472;30.760;2022-12-16T03:32:58;0.10;;;0.10;;
37413;SDS011;23279;46.472;30.760;2022-12-16T03:35:31;0.00;;;0.00;;
37413;SDS011;23279;46.472;30.760;2022-12-16T03:38:02;0.40;;;0.25;;
37413;SDS011;23279;46.472;30.760;2022-12-16T03:40:29;0.10;;;0.10;;
37413;SDS011;23279;46.472;30.760;2022-12-16T03:42:57;0.00;;;0.00;;
37413;SDS011;23279;46.472;30.760;2022-12-16T03:45:28;0.00;;;0.00;;
37413;SDS011;23279;46.472;30.760;2022-12-16T03:47:57;0.10;;;0.10;;
37413;SDS011;23279;46.472;30.760;2022-12-16T03:50:28;0.00;;;0.00;;
37413;SDS011;23279;46.472;30.760;2022-12-16T03:52:56;0.20;;;0.20;;
37413;SDS011;23279;46.472;30.760;2022-12-16T03:55:21;0.00;;;0.00;;
37413;SDS011;23279;46.472;30.760;2022-12-16T03:57:47;0.40;;;0.40;;
37413;SDS011;23279;46.472;30.760;2022-12-16T04:00:12;0.47;;;0.47;;
37413;SDS011;23279;46.472;30.760;2022-12-16T04:02:39;0.25;;;0.25;;
37413;SDS011;23279;46.472;30.760;2022-12-16T04:05:04;0.15;;;0.15;;
37413;SDS011;23279;46.472;30.760;2022-12-16T04:07:30;0.22;;;0.22;;
37413;SDS011;23279;46.472;30.760;2022-12-16T04:09:56;0.10;;;0.10;;
37413;SDS011;23279;46.472;30.760;2022-12-16T04:12:21;0.00;;;0.00;;
37413;SDS011;23279;46.472;30.760;2022-12-16T04:15:05;0.10;;;0.10;;
37413;SDS011;23279;46.472;30.760;2022-12-16T04:17:50;0.30;;;0.30;;
37413;SDS011;23279;46.472;30.760;2022-12-16T04:20:35;0.10;;;0.10;;
37413;SDS011;23279;46.472;30.760;2022-12-16T04:23:22;0.20;;;0.20;;
37413;SDS011;23279;46.472;30.760;2022-12-16T04:26:09;0.20;;;0.20;;
37413;SDS011;23279;46.472;30.760;2022-12-16T04:28:34;0.80;;;0.60;;
37413;SDS011;23279;46.472;30.760;2022-12-16T04:31:00;0.10;;;0.10;;
37413;SDS011;23279;46.472;30.760;2022-12-16T04:33:25;0.90;;;0.60;;
37413;SDS011;23279;46.472;30.760;2022-12-16T04:36:09;0.47;;;0.45;;
37413;SDS011;23279;46.472;30.760;2022-12-16T04:38:53;0.45;;;0.40;;
37413;SDS011;23279;46.472;30.760;2022-12-16T04:41:37;0.80;;;0.40;;
37413;SDS011;23279;46.472;30.760;2022-12-16T04:44:21;0.50;;;0.45;;
37413;SDS011;23279;46.472;30.760;2022-12-16T04:47:05;0.68;;;0.30;;
37413;SDS011;23279;46.472;30.760;2022-12-16T04:49:49;0.88;;;0.47;;
37413;SDS011;23279;46.472;30.760;2022-12-16T04:52:33;1.20;;;0.65;;
37413;SDS011;23279;46.472;30.760;2022-12-16T04:55:17;0.63;;;0.50;;
37413;SDS011;23279;46.472;30.760;2022-12-16T04:58:01;0.85;;;0.63;;
37413;SDS011;23279;46.472;30.760;2022-12-16T05:00:45;0.98;;;0.65;;
37413;SDS011;23279;46.472;30.760;2022-12-16T05:03:31;0.20;;;0.20;;
37413;SDS011;23279;46.472;30.760;2022-12-16T05:06:15;0.47;;;0.45;;
37413;SDS011;23279;46.472;30.760;2022-12-16T05:09:00;0.65;;;0.60;;
37413;SDS011;23279;46.472;30.760;2022-12-16T05:11:44;0.80;;;0.57;;
37413;SDS011;23279;46.472;30.760;2022-12-16T05:14:30;1.15;;;0.70;;
37413;SDS011;23279;46.472;30.760;2022-12-16T05:17:14;0.77;;;0.57;;
37413;SDS011;23279;46.472;30.760;2022-12-16T05:19:58;0.70;;;0.50;;
37413;SDS011;23279;46.472;30.760;2022-12-16T05:22:42;1.15;;;0.60;;
37413;SDS011;23279;46.472;30.760;2022-12-16T05:25:40;0.40;;;0.40;;
37413;SDS011;23279;46.472;30.760;2022-12-16T05:31:08;1.00;;;0.57;;
37413;SDS011;23279;46.472;30.760;2022-12-16T05:33:52;1.17;;;0.60;;
37413;SDS011;23279;46.472;30.760;2022-12-16T05:36:36;1.25;;;0.70;;
37413;SDS011;23279;46.472;30.760;2022-12-16T05:39:20;0.50;;;0.50;;
37413;SDS011;23279;46.472;30.760;2022-12-16T05:42:04;0.63;;;0.50;;
37413;SDS011;23279;46.472;30.760;2022-12-16T05:44:48;0.45;;;0.40;;
37413;SDS011;23279;46.472;30.760;2022-12-16T05:47:32;0.52;;;0.40;;
37413;SDS011;23279;46.472;30.760;2022-12-16T05:50:16;1.13;;;0.57;;
37413;SDS011;23279;46.472;30.760;2022-12-16T05:53:00;0.80;;;0.40;;
37413;SDS011;23279;46.472;30.760;2022-12-16T05:55:44;0.32;;;0.30;;
37413;SDS011;23279;46.472;30.760;2022-12-16T05:58:27;0.63;;;0.47;;
37413;SDS011;23279;46.472;30.760;2022-12-16T06:01:12;1.00;;;0.50;;
37413;SDS011;23279;46.472;30.760;2022-12-16T06:03:56;1.15;;;0.70;;
37413;SDS011;23279;46.472;30.760;2022-12-16T06:06:40;0.77;;;0.50;;
37413;SDS011;23279;46.472;30.760;2022-12-16T06:09:24;0.60;;;0.40;;
37413;SDS011;23279;46.472;30.760;2022-12-16T06:12:08;0.90;;;0.60;;
37413;SDS011;23279;46.472;30.760;2022-12-16T06:14:52;0.77;;;0.50;;
37413;SDS011;23279;46.472;30.760;2022-12-16T06:17:36;0.30;;;0.30;;
37413;SDS011;23279;46.472;30.760;2022-12-16T06:20:24;0.43;;;0.38;;
37413;SDS011;23279;46.472;30.760;2022-12-16T06:23:08;0.88;;;0.40;;
37413;SDS011;23279;46.472;30.760;2022-12-16T06:25:52;0.68;;;0.45;;
37413;SDS011;23279;46.472;30.760;2022-12-16T06:28:36;0.52;;;0.35;;
37413;SDS011;23279;46.472;30.760;2022-12-16T06:31:20;0.47;;;0.30;;
37413;SDS011;23279;46.472;30.760;2022-12-16T06:34:04;1.40;;;0.63;;
37413;SDS011;23279;46.472;30.760;2022-12-16T06:36:48;1.25;;;0.80;;
37413;SDS011;23279;46.472;30.760;2022-12-16T06:39:32;0.38;;;0.32;;
37413;SDS011;23279;46.472;30.760;2022-12-16T06:42:16;0.35;;;0.32;;
37413;SDS011;23279;46.472;30.760;2022-12-16T06:44:59;0.57;;;0.50;;
37413;SDS011;23279;46.472;30.760;2022-12-16T06:47:44;0.50;;;0.40;;
37413;SDS011;23279;46.472;30.760;2022-12-16T06:50:28;0.30;;;0.30;;
37413;SDS011;23279;46.472;30.760;2022-12-16T06:53:13;1.10;;;0.75;;
37413;SDS011;23279;46.472;30.760;2022-12-16T06:55:56;1.05;;;0.90;;
37413;SDS011;23279;46.472;30.760;2022-12-16T06:58:40;0.25;;;0.25;;
37413;SDS011;23279;46.472;30.760;2022-12-16T07:01:25;0.15;;;0.15;;
37413;SDS011;23279;46.472;30.760;2022-12-16T07:04:08;0.95;;;0.55;;
37413;SDS011;23279;46.472;30.760;2022-12-16T07:06:52;0.32;;;0.30;;
37413;SDS011;23279;46.472;30.760;2022-12-16T07:09:36;0.20;;;0.20;;
37413;SDS011;23279;46.472;30.760;2022-12-16T07:12:20;0.20;;;0.20;;
37413;SDS011;23279;46.472;30.760;2022-12-16T07:15:04;0.30;;;0.20;;
37413;SDS011;23279;46.472;30.760;2022-12-16T07:18:03;0.50;;;0.40;;
37413;SDS011;23279;46.472;30.760;2022-12-16T07:23:31;0.43;;;0.38;;
37413;SDS011;23279;46.472;30.760;2022-12-16T07:26:15;0.25;;;0.20;;
37413;SDS011;23279;46.472;30.760;2022-12-16T07:28:59;0.90;;;0.68;;
37413;SDS011;23279;46.472;30.760;2022-12-16T07:31:43;1.38;;;0.77;;
37413;SDS011;23279;46.472;30.760;2022-12-16T07:37:11;0.00;;;0.00;;
37413;SDS011;23279;46.472;30.760;2022-12-16T07:39:55;0.80;;;0.63;;
37413;SDS011;23279;46.472;30.760;2022-12-16T07:42:44;0.50;;;0.40;;
37413;SDS011;23279;46.472;30.760;2022-12-16T07:45:29;1.33;;;1.00;;
37413;SDS011;23279;46.472;30.760;2022-12-16T07:48:13;0.40;;;0.40;;
37413;SDS011;23279;46.472;30.760;2022-12-16T07:50:57;1.08;;;0.70;;
37413;SDS011;23279;46.472;30.760;2022-12-16T07:53:41;0.32;;;0.32;;
37413;SDS011;23279;46.472;30.760;2022-12-16T07:56:25;0.70;;;0.50;;
37413;SDS011;23279;46.472;30.760;2022-12-16T08:01:53;0.73;;;0.47;;
37413;SDS011;23279;46.472;30.760;2022-12-16T08:04:37;0.25;;;0.13;;
37413;SDS011;23279;46.472;30.760;2022-12-16T08:07:21;0.40;;;0.40;;
37413;SDS011;23279;46.472;30.760;2022-12-16T08:10:05;1.15;;;1.02;;
37413;SDS011;23279;46.472;30.760;2022-12-16T08:12:49;1.05;;;0.95;;
37413;SDS011;23279;46.472;30.760;2022-12-16T08:15:33;1.02;;;0.82;;
37413;SDS011;23279;46.472;30.760;2022-12-16T08:18:17;0.40;;;0.40;;
37413;SDS011;23279;46.472;30.760;2022-12-16T08:21:01;0.77;;;0.70;;
37413;SDS011;23279;46.472;30.760;2022-12-16T08:23:45;0.80;;;0.60;;
37413;SDS011;23279;46.472;30.760;2022-12-16T08:26:29;0.50;;;0.50;;
37413;SDS011;23279;46.472;30.760;2022-12-16T08:29:13;0.52;;;0.50;;
37413;SDS011;23279;46.472;30.760;2022-12-16T08:31:57;1.25;;;0.90;;
37413;SDS011;23279;46.472;30.760;2022-12-16T08:34:41;1.25;;;1.10;;
37413;SDS011;23279;46.472;30.760;2022-12-16T08:37:25;0.47;;;0.47;;
37413;SDS011;23279;46.472;30.760;2022-12-16T08:40:09;2.03;;;1.33;;
37413;SDS011;23279;46.472;30.760;2022-12-16T08:42:56;1.20;;;0.90;;
37413;SDS011;23279;46.472;30.760;2022-12-16T08:45:41;0.52;;;0.52;;
37413;SDS011;23279;46.472;30.760;2022-12-16T08:48:26;0.40;;;0.40;;
37413;SDS011;23279;46.472;30.760;2022-12-16T08:51:11;0.73;;;0.68;;
37413;SDS011;23279;46.472;30.760;2022-12-16T08:53:55;0.20;;;0.20;;
37413;SDS011;23279;46.472;30.760;2022-12-16T08:56:39;0.60;;;0.60;;
37413;SDS011;23279;46.472;30.760;2022-12-16T08:59:24;0.65;;;0.55;;
37413;SDS011;23279;46.472;30.760;2022-12-16T09:02:09;0.40;;;0.40;;
37413;SDS011;23279;46.472;30.760;2022-12-16T09:04:53;0.20;;;0.20;;
37413;SDS011;23279;46.472;30.760;2022-12-16T09:07:37;0.30;;;0.30;;
37413;SDS011;23279;46.472;30.760;2022-12-16T09:10:21;0.15;;;0.15;;
37413;SDS011;23279;46.472;30.760;2022-12-16T09:13:05;0.10;;;0.10;;
37413;SDS011;23279;46.472;30.760;2022-12-16T09:15:50;0.00;;;0.00;;
37413;SDS011;23279;46.472;30.760;2022-12-16T09:18:34;0.20;;;0.20;;
37413;SDS011;23279;46.472;30.760;2022-12-16T09:21:18;0.10;;;0.10;;
37413;SDS011;23279;46.472;30.760;2022-12-16T09:26:46;0.00;;;0.00;;
37413;SDS011;23279;46.472;30.760;2022-12-16T09:29:30;0.00;;;0.00;;
37413;SDS011;23279;46.472;30.760;2022-12-16T09:32:14;0.00;;;0.00;;
37413;SDS011;23279;46.472;30.760;2022-12-16T09:34:58;0.00;;;0.00;;
37413;SDS011;23279;46.472;30.760;2022-12-16T09:37:46;0.00;;;0.00;;
37413;SDS011;23279;46.472;30.760;2022-12-16T09:40:30;0.00;;;0.00;;
37413;SDS011;23279;46.472;30.760;2022-12-16T09:49:15;0.00;;;0.00;;
37413;SDS011;23279;46.472;30.760;2022-12-16T09:52:13;0.00;;;0.00;;
37413;SDS011;23279;46.472;30.760;2022-12-16T09:55:02;0.00;;;0.00;;
37413;SDS011;23279;46.472;30.760;2022-12-16T09:57:48;0.00;;;0.00;;
37413;SDS011;23279;46.472;30.760;2022-12-16T10:00:33;0.00;;;0.00;;
37413;SDS011;23279;46.472;30.760;2022-12-16T10:03:22;0.10;;;0.10;;
37413;SDS011;23279;46.472;30.760;2022-12-16T10:06:21;0.00;;;0.00;;
37413;SDS011;23279;46.472;30.760;2022-12-16T10:12:00;0.00;;;0.00;;
37413;SDS011;23279;46.472;30.760;2022-12-16T10:15:03;0.00;;;0.00;;
37413;SDS011;23279;46.472;30.760;2022-12-16T10:17:52;0.00;;;0.00;;
37413;SDS011;23279;46.472;30.760;2022-12-16T10:20:41;0.00;;;0.00;;
37413;SDS011;23279;46.472;30.760;2022-12-16T10:23:41;0.00;;;0.00;;
37413;SDS011;23279;46.472;30.760;2022-12-16T10:29:38;0.00;;;0.00;;
37413;SDS011;23279;46.472;30.760;2022-12-16T10:32:44;0.00;;;0.00;;
37413;SDS011;23279;46.472;30.760;2022-12-16T10:35:51;0.00;;;0.00;;
37413;SDS011;23279;46.472;30.760;2022-12-16T10:38:36;0.00;;;0.00;;
37413;SDS011;23279;46.472;30.760;2022-12-16T10:41:24;0.00;;;0.00;;
37413;SDS011;23279;46.472;30.760;2022-12-16T10:47:11;0.00;;;0.00;;
37413;SDS011;23279;46.472;30.760;2022-12-16T10:49:55;0.00;;;0.00;;
37413;SDS011;23279;46.472;30.760;2022-12-16T10:52:43;0.00;;;0.00;;
37413;SDS011;23279;46.472;30.760;2022-12-16T10:58:52;0.00;;;0.00;;
37413;SDS011;23279;46.472;30.760;2022-12-16T11:01:38;0.10;;;0.10;;
37413;SDS011;23279;46.472;30.760;2022-12-16T11:10:30;0.00;;;0.00;;
37413;SDS011;23279;46.472;30.760;2022-12-16T11:18:54;0.00;;;0.00;;
37413;SDS011;23279;46.472;30.760;2022-12-16T11:21:38;0.00;;;0.00;;
37413;SDS011;23279;46.472;30.760;2022-12-16T11:24:22;0.00;;;0.00;;
37413;SDS011;23279;46.472;30.760;2022-12-16T11:27:14;0.00;;;0.00;;
37413;SDS011;23279;46.472;30.760;2022-12-16T11:29:59;0.00;;;0.00;;
37413;SDS011;23279;46.472;30.760;2022-12-16T11:32:54;0.00;;;0.00;;
37413;SDS011;23279;46.472;30.760;2022-12-16T11:35:42;0.00;;;0.00;;
37413;SDS011;23279;46.472;30.760;2022-12-16T11:38:42;0.00;;;0.00;;
37413;SDS011;23279;46.472;30.760;2022-12-16T11:41:28;0.00;;;0.00;;
37413;SDS011;23279;46.472;30.760;2022-12-16T11:44:18;0.00;;;0.00;;
37413;SDS011;23279;46.472;30.760;2022-12-16T11:47:08;0.00;;;0.00;;
37413;SDS011;23279;46.472;30.760;2022-12-16T11:49:58;0.00;;;0.00;;
37413;SDS011;23279;46.472;30.760;2022-12-16T11:52:43;0.00;;;0.00;;
37413;SDS011;23279;46.472;30.760;2022-12-16T11:55:35;0.00;;;0.00;;
37413;SDS011;23279;46.472;30.760;2022-12-16T11:58:54;0.00;;;0.00;;
37413;SDS011;23279;46.472;30.760;2022-12-16T12:01:37;0.00;;;0.00;;
37413;SDS011;23279;46.472;30.760;2022-12-16T12:04:30;0.00;;;0.00;;
37413;SDS011;23279;46.472;30.760;2022-12-16T12:07:20;0.00;;;0.00;;
37413;SDS011;23279;46.472;30.760;2022-12-16T12:10:17;0.00;;;0.00;;
37413;SDS011;23279;46.472;30.760;2022-12-16T12:16:26;0.00;;;0.00;;
37413;SDS011;23279;46.472;30.760;2022-12-16T12:19:25;0.00;;;0.00;;
37413;SDS011;23279;46.472;30.760;2022-12-16T12:22:34;0.00;;;0.00;;
37413;SDS011;23279;46.472;30.760;2022-12-16T12:28:08;0.00;;;0.00;;
37413;SDS011;23279;46.472;30.760;2022-12-16T12:31:08;0.00;;;0.00;;
37413;SDS011;23279;46.472;30.760;2022-12-16T12:34:08;0.00;;;0.00;;
37413;SDS011;23279;46.472;30.760;2022-12-16T12:40:03;0.00;;;0.00;;
37413;SDS011;23279;46.472;30.760;2022-12-16T12:42:59;0.00;;;0.00;;
37413;SDS011;23279;46.472;30.760;2022-12-16T12:45:56;0.00;;;0.00;;
37413;SDS011;23279;46.472;30.760;2022-12-16T12:48:49;0.00;;;0.00;;
37413;SDS011;23279;46.472;30.760;2022-12-16T12:55:30;0.00;;;0.00;;
37413;SDS011;23279;46.472;30.760;2022-12-16T12:57:59;0.00;;;0.00;;
37413;SDS011;23279;46.472;30.760;2022-12-16T13:00:46;0.00;;;0.00;;
37413;SDS011;23279;46.472;30.760;2022-12-16T13:06:47;0.00;;;0.00;;
37413;SDS011;23279;46.472;30.760;2022-12-16T13:09:32;0.00;;;0.00;;
37413;SDS011;23279;46.472;30.760;2022-12-16T13:12:18;0.00;;;0.00;;
37413;SDS011;23279;46.472;30.760;2022-12-16T13:20:52;0.00;;;0.00;;
37413;SDS011;23279;46.472;30.760;2022-12-16T13:23:42;0.00;;;0.00;;
37413;SDS011;23279;46.472;30.760;2022-12-16T13:26:29;0.00;;;0.00;;
37413;SDS011;23279;46.472;30.760;2022-12-16T13:29:18;0.00;;;0.00;;
37413;SDS011;23279;46.472;30.760;2022-12-16T13:37:54;0.20;;;0.00;;
37413;SDS011;23279;46.472;30.760;2022-12-16T13:40:49;0.00;;;0.00;;
37413;SDS011;23279;46.472;30.760;2022-12-16T13:49:37;0.00;;;0.00;;
37413;SDS011;23279;46.472;30.760;2022-12-16T13:55:45;0.00;;;0.00;;
37413;SDS011;23279;46.472;30.760;2022-12-16T13:58:47;0.00;;;0.00;;
37413;SDS011;23279;46.472;30.760;2022-12-16T14:04:44;0.00;;;0.00;;
37413;SDS011;23279;46.472;30.760;2022-12-16T14:07:36;0.00;;;0.00;;
37413;SDS011;23279;46.472;30.760;2022-12-16T14:10:28;0.00;;;0.00;;
37413;SDS011;23279;46.472;30.760;2022-12-16T14:25:31;0.00;;;0.00;;
37413;SDS011;23279;46.472;30.760;2022-12-16T14:31:27;0.00;;;0.00;;
37413;SDS011;23279;46.472;30.760;2022-12-16T14:34:17;0.00;;;0.00;;
37413;SDS011;23279;46.472;30.760;2022-12-16T14:37:46;0.00;;;0.00;;
37413;SDS011;23279;46.472;30.760;2022-12-16T14:40:18;0.00;;;0.00;;
37413;SDS011;23279;46.472;30.760;2022-12-16T14:43:02;0.00;;;0.00;;
37413;SDS011;23279;46.472;30.760;2022-12-16T14:45:57;0.00;;;0.00;;
37413;SDS011;23279;46.472;30.760;2022-12-16T14:48:43;0.00;;;0.00;;
37413;SDS011;23279;46.472;30.760;2022-12-16T14:51:30;0.00;;;0.00;;
37413;SDS011;23279;46.472;30.760;2022-12-16T14:57:26;0.00;;;0.00;;
37413;SDS011;23279;46.472;30.760;2022-12-16T15:00:22;0.00;;;0.00;;
37413;SDS011;23279;46.472;30.760;2022-12-16T15:06:00;0.00;;;0.00;;
37413;SDS011;23279;46.472;30.760;2022-12-16T15:09:48;0.00;;;0.00;;
37413;SDS011;23279;46.472;30.760;2022-12-16T15:12:21;0.00;;;0.00;;
37413;SDS011;23279;46.472;30.760;2022-12-16T15:15:08;0.00;;;0.00;;
37413;SDS011;23279;46.472;30.760;2022-12-16T15:17:58;0.00;;;0.00;;
37413;SDS011;23279;46.472;30.760;2022-12-16T15:20:47;0.00;;;0.00;;
37413;SDS011;23279;46.472;30.760;2022-12-16T15:23:37;0.00;;;0.00;;
37413;SDS011;23279;46.472;30.760;2022-12-16T15:26:27;0.05;;;0.05;;
37413;SDS011;23279;46.472;30.760;2022-12-16T15:35:10;0.00;;;0.00;;
37413;SDS011;23279;46.472;30.760;2022-12-16T15:40:57;0.00;;;0.00;;
37413;SDS011;23279;46.472;30.760;2022-12-16T15:46:27;0.00;;;0.00;;
37413;SDS011;23279;46.472;30.760;2022-12-16T15:49:28;0.00;;;0.00;;
37413;SDS011;23279;46.472;30.760;2022-12-16T16:01:08;0.00;;;0.00;;
37413;SDS011;23279;46.472;30.760;2022-12-16T16:03:54;0.00;;;0.00;;
37413;SDS011;23279;46.472;30.760;2022-12-16T16:06:57;0.00;;;0.00;;
37413;SDS011;23279;46.472;30.760;2022-12-16T16:09:45;0.00;;;0.00;;
37413;SDS011;23279;46.472;30.760;2022-12-16T16:12:29;0.00;;;0.00;;
37413;SDS011;23279;46.472;30.760;2022-12-16T16:15:13;0.00;;;0.00;;
37413;SDS011;23279;46.472;30.760;2022-12-16T16:17:58;0.00;;;0.00;;
37413;SDS011;23279;46.472;30.760;2022-12-16T16:20:45;0.00;;;0.00;;
37413;SDS011;23279;46.472;30.760;2022-12-16T16:23:43;0.00;;;0.00;;
37413;SDS011;23279;46.472;30.760;2022-12-16T16:26:26;0.00;;;0.00;;
37413;SDS011;23279;46.472;30.760;2022-12-16T16:29:10;0.00;;;0.00;;
37413;SDS011;23279;46.472;30.760;2022-12-16T16:31:55;0.00;;;0.00;;
37413;SDS011;23279;46.472;30.760;2022-12-16T16:34:39;0.00;;;0.00;;
37413;SDS011;23279;46.472;30.760;2022-12-16T16:37:23;0.00;;;0.00;;
37413;SDS011;23279;46.472;30.760;2022-12-16T16:43:04;0.00;;;0.00;;
37413;SDS011;23279;46.472;30.760;2022-12-16T16:45:51;0.00;;;0.00;;
37413;SDS011;23279;46.472;30.760;2022-12-16T16:48:37;0.00;;;0.00;;
37413;SDS011;23279;46.472;30.760;2022-12-16T16:51:21;0.00;;;0.00;;
37413;SDS011;23279;46.472;30.760;2022-12-16T16:54:05;0.00;;;0.00;;
37413;SDS011;23279;46.472;30.760;2022-12-16T16:59:33;0.00;;;0.00;;
37413;SDS011;23279;46.472;30.760;2022-12-16T17:02:18;0.00;;;0.00;;
37413;SDS011;23279;46.472;30.760;2022-12-16T17:05:03;0.00;;;0.00;;
37413;SDS011;23279;46.472;30.760;2022-12-16T17:07:48;0.10;;;0.03;;
37413;SDS011;23279;46.472;30.760;2022-12-16T17:10:32;0.00;;;0.00;;
37413;SDS011;23279;46.472;30.760;2022-12-16T17:13:16;0.00;;;0.00;;
37413;SDS011;23279;46.472;30.760;2022-12-16T17:15:59;0.00;;;0.00;;
37413;SDS011;23279;46.472;30.760;2022-12-16T17:18:43;0.00;;;0.00;;
37413;SDS011;23279;46.472;30.760;2022-12-16T17:21:27;0.00;;;0.00;;
37413;SDS011;23279;46.472;30.760;2022-12-16T17:26:55;0.00;;;0.00;;
37413;SDS011;23279;46.472;30.760;2022-12-16T17:29:39;0.00;;;0.00;;
37413;SDS011;23279;46.472;30.760;2022-12-16T17:32:23;0.00;;;0.00;;
37413;SDS011;23279;46.472;30.760;2022-12-16T17:35:07;0.00;;;0.00;;
37413;SDS011;23279;46.472;30.760;2022-12-16T17:37:53;0.00;;;0.00;;
37413;SDS011;23279;46.472;30.760;2022-12-16T17:40:37;0.00;;;0.00;;
37413;SDS011;23279;46.472;30.760;2022-12-16T17:43:21;0.00;;;0.00;;
37413;SDS011;23279;46.472;30.760;2022-12-16T17:48:50;0.00;;;0.00;;
37413;SDS011;23279;46.472;30.760;2022-12-16T17:51:35;0.00;;;0.00;;
37413;SDS011;23279;46.472;30.760;2022-12-16T17:54:19;0.00;;;0.00;;
37413;SDS011;23279;46.472;30.760;2022-12-16T17:57:03;0.00;;;0.00;;
37413;SDS011;23279;46.472;30.760;2022-12-16T17:59:47;0.00;;;0.00;;
37413;SDS011;23279;46.472;30.760;2022-12-16T18:05:15;0.00;;;0.00;;
37413;SDS011;23279;46.472;30.760;2022-12-16T18:07:59;0.00;;;0.00;;
37413;SDS011;23279;46.472;30.760;2022-12-16T18:10:43;0.00;;;0.00;;
37413;SDS011;23279;46.472;30.760;2022-12-16T18:13:27;0.00;;;0.00;;
37413;SDS011;23279;46.472;30.760;2022-12-16T18:16:11;0.00;;;0.00;;
37413;SDS011;23279;46.472;30.760;2022-12-16T18:21:39;0.00;;;0.00;;
37413;SDS011;23279;46.472;30.760;2022-12-16T18:24:23;0.00;;;0.00;;
37413;SDS011;23279;46.472;30.760;2022-12-16T18:27:07;0.00;;;0.00;;
37413;SDS011;23279;46.472;30.760;2022-12-16T18:29:51;0.08;;;0.08;;
37413;SDS011;23279;46.472;30.760;2022-12-16T18:32:35;0.00;;;0.00;;
37413;SDS011;23279;46.472;30.760;2022-12-16T18:35:19;0.00;;;0.00;;
37413;SDS011;23279;46.472;30.760;2022-12-16T18:38:03;0.00;;;0.00;;
37413;SDS011;23279;46.472;30.760;2022-12-16T18:43:31;0.00;;;0.00;;
37413;SDS011;23279;46.472;30.760;2022-12-16T18:46:15;0.00;;;0.00;;
37413;SDS011;23279;46.472;30.760;2022-12-16T18:51:43;0.10;;;0.00;;
37413;SDS011;23279;46.472;30.760;2022-12-16T18:54:27;0.08;;;0.08;;
37413;SDS011;23279;46.472;30.760;2022-12-16T18:57:11;0.00;;;0.00;;
37413;SDS011;23279;46.472;30.760;2022-12-16T18:59:54;0.00;;;0.00;;
37413;SDS011;23279;46.472;30.760;2022-12-16T19:05:22;0.00;;;0.00;;